Terminal Aerodrome Forecast
Issued by NWS

Home | Current Version | Previous Version | Text Only | Print | Product List | Glossary On
Versions: 1 2 3 4 5 6 7 8 9 10 11 12 13 14 15 16 17 18 19 20 21 22 23 24 25
000
FTUS44 KEWX 181100
TAFSSF
TAF
KSSF 181133Z 1812/1912 04007KT 1SM BR OVC002
     FM181600 03005KT 2SM BR OVC007
     FM181800 03004KT 4SM BR OVC012
     FM182000 05004KT P6SM OVC025
     FM190200 05005KT P6SM VCSH OVC010
     FM190500 05005KT 3SM -SHRA BR OVC007 PROB30 1906/1912 2SM TSRA
      BR BKN005 OVC035CB=

USA.gov is the U.S. government's official web portal to all federal, state and local government web resources and services.